createdAt,value
2018-07-08T00:01:52.529Z,99.90
2018-07-08T00:04:21.655Z,99.90
2018-07-08T00:06:54.747Z,99.90
2018-07-08T00:11:52.916Z,99.90
2018-07-08T00:14:22.048Z,99.90
2018-07-08T00:16:51.177Z,99.90
2018-07-08T00:19:20.303Z,99.90
2018-07-08T00:21:49.452Z,99.90
2018-07-08T00:24:18.605Z,99.90
2018-07-08T00:26:47.750Z,99.90
2018-07-08T00:29:16.947Z,99.90
2018-07-08T00:31:46.069Z,99.90
2018-07-08T00:34:15.267Z,99.90
2018-07-08T00:36:44.406Z,99.90
2018-07-08T00:39:13.573Z,99.90
2018-07-08T00:41:42.710Z,99.90
2018-07-08T00:44:11.869Z,99.90
2018-07-08T00:46:41.003Z,99.90
2018-07-08T00:49:10.139Z,1.00
2018-07-08T00:51:39.392Z,1.00
2018-07-08T00:54:08.521Z,1.00
2018-07-08T00:56:37.705Z,1.00
2018-07-08T00:59:06.809Z,1.00
2018-07-08T01:01:36.019Z,1.00
2018-07-08T01:04:05.105Z,1.00
2018-07-08T01:06:34.265Z,1.00
2018-07-08T01:11:32.440Z,1.00
2018-07-08T01:14:01.552Z,1.00
2018-07-08T01:16:30.866Z,1.00
2018-07-08T01:19:00.006Z,1.00
2018-07-08T01:21:29.132Z,1.00
2018-07-08T01:23:58.258Z,1.00
2018-07-08T01:26:28.066Z,1.00
2018-07-08T01:28:57.188Z,1.00
2018-07-08T01:31:26.316Z,1.00
2018-07-08T01:33:55.464Z,1.00
2018-07-08T01:36:24.580Z,1.00
2018-07-08T01:38:53.700Z,99.90
2018-07-08T01:41:22.829Z,99.90
2018-07-08T01:43:51.955Z,1.00
2018-07-08T01:46:21.093Z,99.90
2018-07-08T01:48:50.216Z,1.00
2018-07-08T01:53:48.306Z,1.00
2018-07-08T01:56:17.418Z,1.00
2018-07-08T01:58:46.580Z,1.00
2018-07-08T02:01:15.674Z,99.90
2018-07-08T02:03:44.825Z,99.90
2018-07-08T02:06:13.961Z,99.90
2018-07-08T02:08:43.086Z,99.90
2018-07-08T02:11:12.213Z,99.90
2018-07-08T02:13:41.347Z,99.90
2018-07-08T02:16:10.476Z,1.00
2018-07-08T02:18:39.645Z,1.00
2018-07-08T02:21:08.761Z,1.00
2018-07-08T02:23:37.886Z,1.00
2018-07-08T02:26:07.307Z,1.00
2018-07-08T02:28:36.436Z,1.00
2018-07-08T02:31:05.561Z,1.00
2018-07-08T02:33:34.708Z,1.00
2018-07-08T02:36:03.936Z,1.00
2018-07-08T02:41:02.192Z,1.00
2018-07-08T02:43:31.323Z,1.00
2018-07-08T02:46:00.913Z,1.00
2018-07-08T02:48:30.035Z,1.00
2018-07-08T02:50:59.167Z,1.00
2018-07-08T02:53:28.368Z,1.00
2018-07-08T02:55:57.485Z,1.00
2018-07-08T02:58:26.636Z,1.00
2018-07-08T03:00:55.757Z,1.00
2018-07-08T03:03:24.887Z,1.00
2018-07-08T03:05:54.028Z,1.00
2018-07-08T03:08:23.156Z,1.00
2018-07-08T03:10:52.275Z,1.00
2018-07-08T03:13:21.407Z,1.00
2018-07-08T03:15:50.540Z,1.00
2018-07-08T03:18:19.705Z,99.90
2018-07-08T03:20:48.983Z,99.90
2018-07-08T03:23:18.116Z,99.90
2018-07-08T03:25:47.245Z,1.00
2018-07-08T03:28:16.360Z,1.00
2018-07-08T03:30:45.482Z,1.00
2018-07-08T03:33:14.614Z,1.00
2018-07-08T03:35:43.745Z,99.90
2018-07-08T03:38:12.855Z,99.90
2018-07-08T03:40:41.984Z,99.90
2018-07-08T03:43:11.111Z,99.90
2018-07-08T03:45:40.447Z,99.90
2018-07-08T03:50:38.535Z,99.90
2018-07-08T03:53:07.832Z,99.90
2018-07-08T03:58:06.027Z,99.90
2018-07-08T04:03:04.072Z,99.90
2018-07-08T04:05:33.264Z,99.90
2018-07-08T04:08:02.395Z,99.90
2018-07-08T04:10:31.519Z,99.90
2018-07-08T04:13:01.221Z,99.90
2018-07-08T04:15:30.502Z,99.90
2018-07-08T04:18:05.243Z,99.90
2018-07-08T04:20:34.532Z,99.90
2018-07-08T04:25:33.334Z,99.90
2018-07-08T04:28:02.848Z,99.90
2018-07-08T04:30:32.443Z,99.90
2018-07-08T04:33:01.857Z,99.90
2018-07-08T04:35:30.979Z,99.90
2018-07-08T04:38:00.371Z,99.90
2018-07-08T04:40:29.648Z,99.90
2018-07-08T04:42:58.797Z,99.90
2018-07-08T04:45:27.911Z,99.90
2018-07-08T04:47:57.040Z,1.00
2018-07-08T04:52:55.397Z,1.00
2018-07-08T04:55:24.525Z,99.90
2018-07-08T04:57:53.651Z,99.90
2018-07-08T05:00:22.781Z,99.90
2018-07-08T05:02:51.925Z,23.00
2018-07-08T05:07:49.947Z,1.00
2018-07-08T05:10:19.120Z,99.90
2018-07-08T05:12:48.219Z,99.90
2018-07-08T05:15:17.357Z,99.90
2018-07-08T05:17:46.492Z,1.00
2018-07-08T05:22:44.569Z,99.90
2018-07-08T05:25:13.717Z,99.90
2018-07-08T05:27:42.844Z,99.90
2018-07-08T05:30:11.991Z,11.20
2018-07-08T05:32:41.124Z,99.90
2018-07-08T05:35:10.257Z,1.00
2018-07-08T05:37:39.439Z,1.00
2018-07-08T05:40:08.565Z,1.00
2018-07-08T05:42:37.706Z,1.00
2018-07-08T05:45:06.860Z,99.90
2018-07-08T05:47:36.022Z,1.00
2018-07-08T05:50:06.376Z,99.90
2018-07-08T05:55:04.433Z,99.90
2018-07-08T05:57:33.548Z,81.30
2018-07-08T06:00:02.686Z,99.90
2018-07-08T06:02:31.816Z,99.90
2018-07-08T06:05:00.940Z,1.00
2018-07-08T06:07:30.092Z,60.60
2018-07-08T06:09:59.227Z,24.50
2018-07-08T06:14:57.266Z,99.90
2018-07-08T06:17:26.407Z,99.90
2018-07-08T06:22:24.485Z,1.00
2018-07-08T06:24:53.629Z,60.90
2018-07-08T06:27:22.761Z,99.90
2018-07-08T06:29:51.874Z,1.00
2018-07-08T06:32:21.030Z,99.90
2018-07-08T06:34:50.156Z,1.00
2018-07-08T06:37:19.280Z,99.90
2018-07-08T06:42:17.329Z,99.90
2018-07-08T06:44:46.452Z,1.00
2018-07-08T06:47:15.575Z,1.00
2018-07-08T06:49:44.696Z,1.00
2018-07-08T06:52:13.833Z,99.90
2018-07-08T06:54:42.949Z,99.90
2018-07-08T06:57:12.080Z,99.90
2018-07-08T06:59:41.200Z,99.90
2018-07-08T07:02:10.649Z,99.90
2018-07-08T07:04:39.780Z,99.90
2018-07-08T07:07:08.916Z,99.90
2018-07-08T07:09:38.040Z,94.20
2018-07-08T07:12:07.900Z,2.10
2018-07-08T07:14:37.128Z,1.00
2018-07-08T07:17:06.291Z,1.00
2018-07-08T07:19:35.420Z,1.00
2018-07-08T07:22:04.578Z,1.00
2018-07-08T07:24:33.707Z,1.00
2018-07-08T07:27:02.843Z,1.00
2018-07-08T07:29:31.972Z,1.00
2018-07-08T07:32:01.107Z,1.00
2018-07-08T07:34:30.244Z,1.00
2018-07-08T07:36:59.430Z,1.00
2018-07-08T07:39:28.505Z,1.00
2018-07-08T07:41:57.633Z,1.00
2018-07-08T07:44:26.761Z,1.00
2018-07-08T07:46:55.876Z,1.00
2018-07-08T07:49:25.028Z,1.00
2018-07-08T07:51:54.141Z,1.00
2018-07-08T07:54:23.281Z,1.00
2018-07-08T07:56:52.404Z,1.00
2018-07-08T07:59:21.537Z,1.00
2018-07-08T08:01:50.673Z,1.00
2018-07-08T08:04:19.804Z,1.00
2018-07-08T08:06:48.948Z,1.00
2018-07-08T08:09:18.085Z,1.00
2018-07-08T08:11:47.200Z,1.00
2018-07-08T08:14:16.380Z,1.00
2018-07-08T08:16:45.506Z,1.00
2018-07-08T08:19:14.637Z,1.00
2018-07-08T08:21:43.762Z,1.00
2018-07-08T08:24:12.900Z,1.00
2018-07-08T08:26:42.084Z,1.00
2018-07-08T08:29:11.348Z,1.00
2018-07-08T08:31:40.472Z,1.00
2018-07-08T08:35:16.391Z,1.00
2018-07-08T08:37:48.947Z,1.00
2018-07-08T08:40:18.976Z,1.00
2018-07-08T08:42:48.119Z,1.00
2018-07-08T08:45:18.400Z,1.00
2018-07-08T08:47:47.525Z,1.00
2018-07-08T08:50:17.000Z,1.00
2018-07-08T08:55:15.295Z,99.90
2018-07-08T08:57:44.432Z,99.90
2018-07-08T09:00:17.581Z,99.90
2018-07-08T09:02:46.761Z,99.90
2018-07-08T09:05:15.898Z,99.90
2018-07-08T09:07:45.031Z,99.90
2018-07-08T09:10:14.163Z,83.60
2018-07-08T09:15:12.221Z,92.90
2018-07-08T09:17:41.366Z,64.40
2018-07-08T09:20:10.512Z,25.40
2018-07-08T09:22:39.640Z,15.50
2018-07-08T09:27:37.694Z,1.00
2018-07-08T09:30:07.080Z,1.00
2018-07-08T09:32:36.201Z,1.00
2018-07-08T09:35:05.349Z,1.00
2018-07-08T09:37:34.471Z,1.00
2018-07-08T09:40:03.617Z,1.00
2018-07-08T09:42:32.760Z,1.00
2018-07-08T09:45:01.911Z,1.00
2018-07-08T09:47:31.069Z,1.00
2018-07-08T09:50:00.189Z,1.00
2018-07-08T09:52:29.381Z,1.00
2018-07-08T09:54:58.457Z,1.00
2018-07-08T09:57:27.584Z,99.90
2018-07-08T09:59:56.714Z,99.90
2018-07-08T10:02:25.864Z,99.90
2018-07-08T10:04:55.021Z,99.90
2018-07-08T10:07:24.145Z,99.90
2018-07-08T10:09:53.283Z,99.90
2018-07-08T10:12:22.415Z,99.90
2018-07-08T10:14:51.551Z,99.90
2018-07-08T10:17:20.685Z,99.90
2018-07-08T10:19:49.952Z,99.90
2018-07-08T10:22:18.957Z,99.90
2018-07-08T10:24:48.087Z,99.90
2018-07-08T10:27:42.601Z,99.90
2018-07-08T10:30:11.801Z,99.90
2018-07-08T10:32:40.929Z,99.90
2018-07-08T10:35:26.044Z,98.90
2018-07-08T10:37:55.167Z,98.50
2018-07-08T10:40:24.317Z,55.90
2018-07-08T10:42:53.449Z,39.20
2018-07-08T10:45:22.579Z,18.70
2018-07-08T10:50:20.780Z,1.00
2018-07-08T10:55:18.921Z,1.00
2018-07-08T10:57:48.036Z,1.00
2018-07-08T11:00:17.191Z,1.00
2018-07-08T11:02:46.444Z,1.00
2018-07-08T11:05:15.598Z,1.00
2018-07-08T11:07:44.706Z,1.00
2018-07-08T11:10:14.148Z,1.00
2018-07-08T11:15:12.705Z,1.00
2018-07-08T11:17:41.935Z,1.00
2018-07-08T11:20:11.075Z,1.00
2018-07-08T11:22:40.192Z,1.00
2018-07-08T11:25:09.313Z,1.00
2018-07-08T11:27:38.432Z,1.00
2018-07-08T11:32:37.427Z,1.00
2018-07-08T11:37:36.300Z,1.00
2018-07-08T11:40:06.140Z,1.00
2018-07-08T11:42:35.249Z,1.00
2018-07-08T11:47:33.325Z,1.00
2018-07-08T11:50:02.440Z,1.00
2018-07-08T11:52:31.578Z,1.00
2018-07-08T11:55:00.718Z,1.00
2018-07-08T11:57:29.889Z,1.00
2018-07-08T11:59:59.022Z,1.00
2018-07-08T12:04:57.097Z,1.00
2018-07-08T12:07:26.245Z,1.00
2018-07-08T12:09:55.432Z,1.00
2018-07-08T12:12:24.566Z,1.00
2018-07-08T12:14:53.683Z,1.00
2018-07-08T12:17:22.822Z,1.00
2018-07-08T12:19:51.949Z,1.00
2018-07-08T12:22:21.090Z,1.00
2018-07-08T12:24:50.226Z,1.00
2018-07-08T12:27:19.364Z,1.00
2018-07-08T12:32:17.928Z,1.00
2018-07-08T12:34:47.051Z,1.00
2018-07-08T12:37:16.209Z,1.00
2018-07-08T12:39:45.345Z,1.00
2018-07-08T12:42:14.477Z,1.00
2018-07-08T12:44:43.648Z,1.00
2018-07-08T12:47:12.717Z,1.00
2018-07-08T12:49:41.836Z,1.00
2018-07-08T12:52:11.002Z,1.00
2018-07-08T12:54:40.104Z,1.00
2018-07-08T12:57:09.348Z,1.00
2018-07-08T12:59:38.489Z,1.00
2018-07-08T13:02:07.913Z,1.00
2018-07-08T13:04:37.045Z,1.00
2018-07-08T13:07:06.712Z,1.00
2018-07-08T13:09:35.941Z,1.00
2018-07-08T13:14:34.022Z,1.00
2018-07-08T13:19:33.198Z,1.00
2018-07-08T13:22:03.053Z,1.00
2018-07-08T13:24:33.078Z,1.00
2018-07-08T13:27:02.225Z,1.00
2018-07-08T13:29:32.429Z,1.00
2018-07-08T13:32:08.363Z,1.00
2018-07-08T13:34:37.526Z,1.00
2018-07-08T13:37:06.856Z,1.00
2018-07-08T13:39:35.997Z,1.00
2018-07-08T13:42:05.143Z,1.00
2018-07-08T13:44:34.539Z,1.00
2018-07-08T13:47:03.663Z,1.00
2018-07-08T13:49:32.805Z,1.00
2018-07-08T13:52:01.929Z,1.00
2018-07-08T13:54:31.071Z,1.00
2018-07-08T13:57:00.194Z,1.00
2018-07-08T13:59:29.329Z,1.00
2018-07-08T14:01:58.460Z,1.00
2018-07-08T14:04:27.692Z,1.00
2018-07-08T14:06:56.820Z,1.00
2018-07-08T14:09:25.959Z,1.00
2018-07-08T14:11:55.080Z,1.00
2018-07-08T14:14:24.217Z,1.00
2018-07-08T14:16:53.498Z,1.00
2018-07-08T14:19:22.661Z,1.00
2018-07-08T14:21:52.408Z,1.00
2018-07-08T14:24:21.685Z,1.00
2018-07-08T14:26:50.971Z,1.00
2018-07-08T14:31:49.843Z,1.00
2018-07-08T14:34:19.362Z,1.00
2018-07-08T14:36:48.885Z,1.00
2018-07-08T14:39:18.281Z,1.00
2018-07-08T14:41:47.745Z,1.00
2018-07-08T14:44:17.102Z,1.00
2018-07-08T14:46:46.408Z,1.00
2018-07-08T14:49:15.694Z,1.00
2018-07-08T14:51:45.024Z,1.00
2018-07-08T14:54:14.367Z,1.00
2018-07-08T14:56:43.625Z,1.00
2018-07-08T14:59:12.898Z,1.00
2018-07-08T15:01:42.141Z,1.00
2018-07-08T15:04:11.373Z,1.00
2018-07-08T15:06:40.779Z,1.00
2018-07-08T15:09:11.566Z,1.00
2018-07-08T15:11:40.982Z,1.00
2018-07-08T15:14:10.447Z,1.00
2018-07-08T15:16:39.580Z,1.00
2018-07-08T15:19:08.696Z,1.00
2018-07-08T15:21:37.851Z,1.00
2018-07-08T15:26:35.879Z,1.00
2018-07-08T15:29:05.004Z,1.00
2018-07-08T15:31:34.129Z,1.00
2018-07-08T15:36:32.167Z,1.00
2018-07-08T15:39:01.342Z,1.00
2018-07-08T15:41:30.567Z,1.00
2018-07-08T15:43:59.679Z,1.00
2018-07-08T15:46:28.810Z,1.00
2018-07-08T15:48:57.940Z,1.00
2018-07-08T15:51:27.057Z,1.00
2018-07-08T15:53:56.926Z,1.00
2018-07-08T15:56:26.073Z,1.00
2018-07-08T15:58:55.202Z,1.00
2018-07-08T16:01:24.333Z,1.00
2018-07-08T16:03:53.459Z,1.00
2018-07-08T16:06:22.576Z,1.00
2018-07-08T16:08:51.708Z,1.00
2018-07-08T16:11:20.825Z,1.00
2018-07-08T16:13:49.959Z,1.00
2018-07-08T16:16:19.087Z,1.00
2018-07-08T16:18:48.781Z,1.00
2018-07-08T16:23:46.826Z,1.00
2018-07-08T16:26:15.943Z,1.00
2018-07-08T16:28:45.865Z,1.00
2018-07-08T16:33:43.909Z,1.00
2018-07-08T16:36:13.044Z,1.00
2018-07-08T16:38:42.168Z,1.00
2018-07-08T16:41:11.329Z,1.00
2018-07-08T16:43:40.464Z,1.00
2018-07-08T16:46:09.604Z,1.00
2018-07-08T16:48:38.723Z,1.00
2018-07-08T16:51:07.869Z,1.00
2018-07-08T16:53:36.993Z,1.00
2018-07-08T16:56:06.190Z,1.00
2018-07-08T16:58:35.324Z,1.00
2018-07-08T17:01:04.501Z,1.00
2018-07-08T17:03:34.100Z,1.00
2018-07-08T17:06:03.313Z,1.00
2018-07-08T17:08:32.522Z,1.00
2018-07-08T17:11:01.653Z,1.00
2018-07-08T17:13:30.795Z,1.00
2018-07-08T17:15:59.923Z,1.00
2018-07-08T17:18:29.057Z,1.00
2018-07-08T17:20:58.183Z,1.00
2018-07-08T17:23:27.356Z,1.00
2018-07-08T17:25:56.419Z,1.00
2018-07-08T17:28:25.621Z,1.00
2018-07-08T17:30:54.743Z,1.00
2018-07-08T17:33:23.897Z,1.00
2018-07-08T17:35:53.002Z,1.00
2018-07-08T17:38:22.140Z,1.00
2018-07-08T17:40:51.279Z,1.00
2018-07-08T17:43:20.404Z,1.00
2018-07-08T17:45:49.537Z,1.00
2018-07-08T17:48:18.698Z,1.00
2018-07-08T17:50:47.994Z,1.00
2018-07-08T17:53:17.193Z,1.00
2018-07-08T17:55:46.350Z,1.00
2018-07-08T18:00:44.403Z,1.00
2018-07-08T18:03:13.682Z,1.00
2018-07-08T18:05:42.715Z,1.00
2018-07-08T18:08:11.866Z,1.00
2018-07-08T18:10:40.987Z,1.00
2018-07-08T18:13:10.528Z,1.00
2018-07-08T18:15:40.226Z,1.00
2018-07-08T18:18:09.423Z,1.00
2018-07-08T18:20:38.701Z,1.00
2018-07-08T18:23:07.888Z,1.00
2018-07-08T18:25:36.978Z,1.00
2018-07-08T18:28:06.160Z,1.00
2018-07-08T18:30:36.440Z,1.00
2018-07-08T18:35:35.130Z,1.00
2018-07-08T18:38:04.282Z,1.00
2018-07-08T18:40:33.433Z,1.00
2018-07-08T18:45:31.493Z,1.00
2018-07-08T18:48:00.628Z,1.00
2018-07-08T18:52:58.679Z,1.00
2018-07-08T18:55:27.830Z,1.00
2018-07-08T18:57:56.956Z,1.00
2018-07-08T19:00:26.216Z,1.00
2018-07-08T19:02:55.353Z,1.00
2018-07-08T19:05:24.504Z,1.00
2018-07-08T19:07:53.646Z,1.00
2018-07-08T19:10:22.797Z,1.00
2018-07-08T19:12:51.938Z,1.00
2018-07-08T19:15:21.081Z,1.00
2018-07-08T19:17:50.227Z,1.00
2018-07-08T19:20:19.372Z,1.00
2018-07-08T19:22:48.586Z,1.00
2018-07-08T19:25:17.743Z,1.00
2018-07-08T19:27:46.885Z,1.00
2018-07-08T19:30:16.029Z,1.00
2018-07-08T19:32:45.194Z,1.00
2018-07-08T19:35:14.351Z,1.00
2018-07-08T19:40:12.425Z,1.00
2018-07-08T19:42:41.571Z,1.00
2018-07-08T19:45:10.701Z,1.00
2018-07-08T19:47:39.974Z,1.00
2018-07-08T19:50:09.006Z,1.00
2018-07-08T19:52:38.163Z,1.00
2018-07-08T19:55:07.385Z,1.00
2018-07-08T19:57:36.566Z,1.00
2018-07-08T20:00:06.329Z,1.00
2018-07-08T20:05:04.394Z,1.00
2018-07-08T20:07:33.559Z,1.00
2018-07-08T20:10:02.749Z,1.00
2018-07-08T20:12:31.902Z,1.00
2018-07-08T20:15:01.835Z,1.00
2018-07-08T20:17:31.244Z,1.00
2018-07-08T20:20:00.390Z,1.00
2018-07-08T20:22:29.524Z,1.00
2018-07-08T20:27:27.645Z,1.00
2018-07-08T20:29:57.215Z,1.00
2018-07-08T20:32:26.515Z,1.00
2018-07-08T20:34:56.653Z,1.00
2018-07-08T20:37:25.880Z,1.00
2018-07-08T20:39:55.086Z,1.00
2018-07-08T20:42:24.409Z,1.00
2018-07-08T20:44:53.583Z,1.00
2018-07-08T20:47:22.770Z,1.00
2018-07-08T20:49:52.223Z,1.00
2018-07-08T20:52:21.381Z,1.00
2018-07-08T20:54:50.519Z,1.00
2018-07-08T20:59:48.560Z,1.00
2018-07-08T21:02:18.104Z,1.00
2018-07-08T21:07:16.242Z,8.80
2018-07-08T21:09:45.381Z,18.10
2018-07-08T21:12:14.583Z,26.70
2018-07-08T21:14:43.913Z,31.20
2018-07-08T21:17:13.097Z,42.80
2018-07-08T21:22:11.447Z,97.20
2018-07-08T21:24:40.644Z,97.30
2018-07-08T21:29:38.720Z,20.20
2018-07-08T21:32:07.844Z,25.00
2018-07-08T21:34:37.080Z,27.70
2018-07-08T21:37:06.217Z,33.80
2018-07-08T21:39:35.369Z,20.60
2018-07-08T21:42:05.137Z,19.80
2018-07-08T21:44:34.267Z,32.50
2018-07-08T21:47:03.485Z,31.60
2018-07-08T21:49:32.639Z,24.50
2018-07-08T21:52:01.835Z,19.30
2018-07-08T21:54:30.950Z,22.70
2018-07-08T21:57:00.106Z,30.10
2018-07-08T21:59:29.345Z,25.30
2018-07-08T22:04:31.197Z,29.20
2018-07-08T22:07:05.866Z,27.90
2018-07-08T22:09:35.557Z,24.70
2018-07-08T22:14:33.715Z,34.60
2018-07-08T22:17:03.135Z,41.80
2018-07-08T22:19:32.290Z,63.10
2018-07-08T22:22:01.867Z,96.80
2018-07-08T22:24:31.257Z,97.10
2018-07-08T22:27:00.406Z,99.90
2018-07-08T22:29:29.555Z,99.90
2018-07-08T22:31:58.697Z,99.90
2018-07-08T22:34:27.836Z,99.90
2018-07-08T22:36:56.991Z,99.90
2018-07-08T22:39:26.161Z,1.00
2018-07-08T22:41:55.286Z,99.90
2018-07-08T22:44:24.411Z,99.90
2018-07-08T22:46:53.570Z,99.90
2018-07-08T22:49:22.717Z,99.90
2018-07-08T22:54:20.800Z,99.90
2018-07-08T22:56:49.944Z,1.00
2018-07-08T22:59:19.120Z,1.00
2018-07-08T23:02:05.438Z,1.00
2018-07-08T23:04:34.571Z,1.00
2018-07-08T23:07:03.705Z,99.90
2018-07-08T23:09:33.028Z,99.90
2018-07-08T23:12:02.168Z,99.90
2018-07-08T23:14:31.322Z,99.90
2018-07-08T23:17:00.462Z,99.90
2018-07-08T23:19:29.612Z,1.00
2018-07-08T23:21:58.751Z,1.00
2018-07-08T23:24:27.909Z,45.50
2018-07-08T23:26:57.041Z,1.00
2018-07-08T23:29:26.181Z,1.00
2018-07-08T23:31:55.323Z,1.00
2018-07-08T23:34:24.484Z,1.00
2018-07-08T23:36:53.628Z,99.90
2018-07-08T23:39:22.756Z,99.90
2018-07-08T23:41:51.880Z,1.00
2018-07-08T23:44:21.021Z,1.00
2018-07-08T23:46:50.160Z,1.00
2018-07-08T23:49:19.310Z,99.90
2018-07-08T23:51:48.448Z,99.90
2018-07-08T23:54:17.604Z,99.30
2018-07-08T23:56:46.750Z,57.60
2018-07-08T23:59:15.898Z,99.90
